Time;durP1;ratioP1;P1;durP2;ratioP2;P2;SDS_P1;SDS_P2;PMS_P1;PMS_P2;Temp;Humidity;BMP_temperature;BMP_pressure;BME280_temperature;BME280_humidity;BME280_pressure;Samples;Min_cycle;Max_cycle;Signal;HPM_P1;HPM_P2
2023/01/08 00:01:59;;;;;;;;;;;;;;;;;;5029607;28;7293;-73
2023/01/08 00:04:25;;;;;;;;;;;;;;;;;;5027207;28;7238;-73
2023/01/08 00:07:02;;;;;;;;;;;;;;;;;;5031562;28;8547;-73
2023/01/08 00:09:27;;;;;;;;;;;;;;;;;;5034567;28;7076;-73
2023/01/08 00:11:53;;;;;;;;;;;;;;;;;;5031512;28;7026;-73
2023/01/08 00:14:50;;;;;;;;;;;;;;;;;;5019300;28;7212;-73
2023/01/08 00:17:16;;;;;;;;;;;;;;;;;;5031961;28;7225;-73
2023/01/08 00:19:43;;;;;;;;;;;;;;;;;;5031758;28;7232;-73
2023/01/08 00:22:09;;;;;;;;;;;;;;;;;;5033831;28;8683;-71
2023/01/08 00:24:34;;;;;;;;;;;;;;;;;;5027495;28;7213;-73
2023/01/08 00:27:00;;;;;;;;;;;;;;;;;;5032774;28;7181;-73
2023/01/08 00:32:39;;;;;;;;;;;;;;;;;;5020956;28;6751;-73
2023/01/08 00:35:05;;;;;;;;;;;;;;;;;;5034723;28;7172;-73
2023/01/08 00:37:48;;;;;;;;;;;;;;;;;;5022313;28;6967;-73
2023/01/08 00:40:14;;;;;;;;;;;;;;;;;;5015540;28;7197;-73
2023/01/08 00:43:14;;;;;;;;;;;;;;;;;;5015589;28;7281;-73
2023/01/08 00:45:39;;;;;;;;;;;;;;;;;;5018974;28;8426;-73
2023/01/08 00:48:05;;;;;;;;;;;;;;;;;;5034866;28;7495;-73
2023/01/08 00:50:30;;;;;;;;;;;;;;;;;;5035054;28;6963;-73
2023/01/08 00:52:56;;;;;;;;;;;;;;;;;;5035035;28;7070;-73
2023/01/08 00:55:22;;;;;;;;;;;;;;;;;;5020507;28;8426;-74
2023/01/08 00:57:57;;;;;;;;;;;;;;;;;;5015393;28;7279;-73
2023/01/08 01:00:23;;;;;;;;;;;;;;;;;;5039018;28;6956;-73
2023/01/08 01:02:56;;;;;;;;;;;;;;;;;;5028594;28;7173;-73
2023/01/08 01:05:22;;;;;;;;;;;;;;;;;;5027635;28;7150;-74
2023/01/08 01:10:50;;;;;;;;;;;;;;;;;;5044737;28;7102;-74
2023/01/08 01:13:43;;;;;;;;;;;;;;;;;;5054361;28;7376;-73
2023/01/08 01:16:08;;;;;;;;;;;;;;;;;;5044631;28;7147;-73
2023/01/08 01:21:36;;;;;;;;;;;;;;;;;;5054487;28;6732;-72
2023/01/08 01:24:12;;;;;;;;;;;;;;;;;;5044458;28;7046;-73
2023/01/08 01:26:38;;;;;;;;;;;;;;;;;;5041355;28;7247;-73
2023/01/08 01:29:11;;;;;;;;;;;;;;;;;;5040888;28;7380;-74
2023/01/08 01:31:37;;;;;;;;;;;;;;;;;;5042151;28;6969;-73
2023/01/08 01:34:02;;;;;;;;;;;;;;;;;;5021143;28;6946;-73
2023/01/08 01:36:28;;;;;;;;;;;;;;;;;;5031590;28;6967;-73
2023/01/08 01:38:55;;;;;;;;;;;;;;;;;;5029589;28;7523;-73
2023/01/08 01:41:21;;;;;;;;;;;;;;;;;;5018035;28;7048;-73
2023/01/08 01:44:20;;;;;;;;;;;;;;;;;;5054060;28;7159;-73
2023/01/08 01:46:47;;;;;;;;;;;;;;;;;;5044971;28;7641;-73
2023/01/08 01:55:18;;;;;;;;;;;;;;;;;;5020220;28;6980;-73
2023/01/08 02:01:23;;;;;;;;;;;;;;;;;;5014942;28;6685;-73
2023/01/08 02:03:48;;;;;;;;;;;;;;;;;;5014825;28;7170;-73
2023/01/08 02:06:31;;;;;;;;;;;;;;;;;;5020608;28;6919;-73
2023/01/08 02:09:15;;;;;;;;;;;;;;;;;;5032548;28;7127;-74
2023/01/08 02:15:07;;;;;;;;;;;;;;;;;;5034084;28;6879;-73
2023/01/08 02:17:38;;;;;;;;;;;;;;;;;;5034429;28;7129;-74
2023/01/08 02:20:11;;;;;;;;;;;;;;;;;;5034388;28;6987;-73
2023/01/08 02:23:08;;;;;;;;;;;;;;;;;;5034286;28;7395;-73
2023/01/08 02:25:37;;;;;;;;;;;;;;;;;;5034314;28;7061;-73
2023/01/08 02:28:29;;;;;;;;;;;;;;;;;;5034404;28;7255;-72
2023/01/08 02:30:56;;;;;;;;;;;;;;;;;;5034838;28;7326;-73
2023/01/08 02:33:28;;;;;;;;;;;;;;;;;;5025120;28;7216;-74
2023/01/08 02:39:09;;;;;;;;;;;;;;;;;;5034401;28;6795;-73
2023/01/08 02:41:53;;;;;;;;;;;;;;;;;;5031841;28;6958;-73
2023/01/08 02:44:26;;;;;;;;;;;;;;;;;;5014359;28;7187;-74
2023/01/08 02:46:55;;;;;;;;;;;;;;;;;;5024114;28;7453;-73
2023/01/08 02:49:24;;;;;;;;;;;;;;;;;;5057349;28;7445;-73
2023/01/08 02:52:23;;;;;;;;;;;;;;;;;;5057289;28;7079;-73
2023/01/08 02:54:49;;;;;;;;;;;;;;;;;;5058505;28;7099;-73
2023/01/08 02:57:17;;;;;;;;;;;;;;;;;;5057529;28;7378;-73
2023/01/08 03:00:16;;;;;;;;;;;;;;;;;;5057611;28;6951;-73
2023/01/08 03:02:42;;;;;;;;;;;;;;;;;;5056849;28;7432;-73
2023/01/08 03:05:23;;;;;;;;;;;;;;;;;;5056983;28;7350;-73
2023/01/08 03:10:56;;;;;;;;;;;;;;;;;;5047239;28;6753;-73
2023/01/08 03:19:50;;;;;;;;;;;;;;;;;;5036888;28;6905;-73
2023/01/08 03:22:17;;;;;;;;;;;;;;;;;;5038142;28;7222;-73
2023/01/08 03:30:50;;;;;;;;;;;;;;;;;;5051358;28;6922;-73
2023/01/08 03:33:18;;;;;;;;;;;;;;;;;;5036748;28;7444;-73
2023/01/08 03:35:47;;;;;;;;;;;;;;;;;;5050368;28;7237;-74
2023/01/08 03:38:20;;;;;;;;;;;;;;;;;;5040416;28;7329;-73
2023/01/08 03:41:06;;;;;;;;;;;;;;;;;;5036719;28;7289;-73
2023/01/08 03:43:32;;;;;;;;;;;;;;;;;;5036673;28;7165;-73
2023/01/08 03:46:01;;;;;;;;;;;;;;;;;;5036641;28;7556;-74
2023/01/08 03:48:29;;;;;;;;;;;;;;;;;;5017170;28;8989;-73
2023/01/08 03:53:59;;;;;;;;;;;;;;;;;;5016614;28;6980;-74
2023/01/08 03:59:27;;;;;;;;;;;;;;;;;;5016005;28;6682;-73
2023/01/08 04:02:02;;;;;;;;;;;;;;;;;;5016648;28;6944;-73
2023/01/08 04:04:28;;;;;;;;;;;;;;;;;;5016808;28;7126;-73
2023/01/08 04:07:10;;;;;;;;;;;;;;;;;;5016598;28;7205;-72
2023/01/08 04:09:36;;;;;;;;;;;;;;;;;;5016549;28;7205;-73
2023/01/08 04:12:02;;;;;;;;;;;;;;;;;;5016299;28;7016;-73
2023/01/08 04:14:28;;;;;;;;;;;;;;;;;;5016898;28;7252;-73
2023/01/08 04:16:53;;;;;;;;;;;;;;;;;;5016188;28;6988;-73
2023/01/08 04:22:21;;;;;;;;;;;;;;;;;;5016330;28;6895;-73
2023/01/08 04:25:05;;;;;;;;;;;;;;;;;;5015914;28;7031;-73
2023/01/08 04:27:31;;;;;;;;;;;;;;;;;;5016202;28;7086;-73
2023/01/08 04:30:16;;;;;;;;;;;;;;;;;;5016132;28;7046;-73
2023/01/08 04:32:42;;;;;;;;;;;;;;;;;;5015679;28;6813;-73
2023/01/08 04:38:26;;;;;;;;;;;;;;;;;;5015966;28;6709;-73
2023/01/08 04:41:01;;;;;;;;;;;;;;;;;;5015972;28;7173;-73
2023/01/08 04:43:28;;;;;;;;;;;;;;;;;;5015850;28;7299;-73
2023/01/08 04:46:01;;;;;;;;;;;;;;;;;;5016013;28;7408;-73
2023/01/08 04:48:27;;;;;;;;;;;;;;;;;;5020546;28;7315;-73
2023/01/08 04:51:04;;;;;;;;;;;;;;;;;;5015809;28;7210;-73
2023/01/08 04:53:33;;;;;;;;;;;;;;;;;;5015748;28;7687;-73
2023/01/08 04:56:03;;;;;;;;;;;;;;;;;;5015690;28;7670;-73
2023/01/08 04:58:28;;;;;;;;;;;;;;;;;;5015636;28;7063;-73
2023/01/08 05:01:14;;;;;;;;;;;;;;;;;;5015843;28;7211;-73
2023/01/08 05:03:40;;;;;;;;;;;;;;;;;;5015921;28;6977;-73
2023/01/08 05:06:07;;;;;;;;;;;;;;;;;;5015856;28;6937;-73
2023/01/08 05:08:32;;;;;;;;;;;;;;;;;;5016343;28;7072;-72
2023/01/08 05:10:58;;;;;;;;;;;;;;;;;;5015351;28;7145;-71
2023/01/08 05:13:24;;;;;;;;;;;;;;;;;;4997640;28;7898;-71
2023/01/08 05:15:49;;;;;;;;;;;;;;;;;;5016211;28;7194;-71
2023/01/08 05:18:15;;;;;;;;;;;;;;;;;;5015215;28;7096;-71
2023/01/08 05:20:40;;;;;;;;;;;;;;;;;;5015868;28;6945;-71
2023/01/08 05:23:06;;;;;;;;;;;;;;;;;;5014972;28;7222;-71
2023/01/08 05:25:31;;;;;;;;;;;;;;;;;;5015131;28;7595;-71
2023/01/08 05:27:57;;;;;;;;;;;;;;;;;;5014833;28;8083;-71
2023/01/08 05:30:36;;;;;;;;;;;;;;;;;;5015106;28;7239;-71
2023/01/08 05:33:01;;;;;;;;;;;;;;;;;;5015074;28;7092;-71
2023/01/08 05:36:02;;;;;;;;;;;;;;;;;;5015086;28;7306;-71
2023/01/08 05:38:27;;;;;;;;;;;;;;;;;;5015897;28;7456;-71
2023/01/08 05:44:00;;;;;;;;;;;;;;;;;;5028598;28;7516;-71
2023/01/08 05:46:26;;;;;;;;;;;;;;;;;;5025740;28;7155;-71
2023/01/08 05:48:52;;;;;;;;;;;;;;;;;;5032106;28;7456;-71
2023/01/08 05:51:18;;;;;;;;;;;;;;;;;;5027403;28;7301;-71
2023/01/08 05:53:44;;;;;;;;;;;;;;;;;;5028417;28;7231;-72
2023/01/08 05:56:38;;;;;;;;;;;;;;;;;;5034608;28;7436;-72
2023/01/08 05:59:04;;;;;;;;;;;;;;;;;;5034515;28;7154;-72
2023/01/08 06:04:43;;;;;;;;;;;;;;;;;;5034330;28;6975;-71
2023/01/08 06:07:08;;;;;;;;;;;;;;;;;;5032594;28;8482;-72
2023/01/08 06:09:36;;;;;;;;;;;;;;;;;;5017988;28;7222;-72
2023/01/08 06:12:02;;;;;;;;;;;;;;;;;;5028153;28;7215;-72
2023/01/08 06:14:30;;;;;;;;;;;;;;;;;;5030456;28;7142;-72
2023/01/08 06:16:56;;;;;;;;;;;;;;;;;;5034418;28;7518;-73
2023/01/08 06:22:25;;;;;;;;;;;;;;;;;;5034983;28;6987;-72
2023/01/08 06:27:57;;;;;;;;;;;;;;;;;;5037526;28;6950;-72
2023/01/08 06:30:22;;;;;;;;;;;;;;;;;;5019314;28;7220;-72
2023/01/08 06:32:48;;;;;;;;;;;;;;;;;;5030107;28;7142;-72
2023/01/08 06:38:18;;;;;;;;;;;;;;;;;;5037851;28;6980;-72
2023/01/08 06:40:45;;;;;;;;;;;;;;;;;;5037953;28;6951;-72
2023/01/08 06:43:37;;;;;;;;;;;;;;;;;;5038062;28;7388;-73
2023/01/08 06:46:07;;;;;;;;;;;;;;;;;;5037835;28;6973;-73
2023/01/08 06:48:33;;;;;;;;;;;;;;;;;;5035147;28;7088;-73
2023/01/08 06:51:07;;;;;;;;;;;;;;;;;;5032858;28;7120;-72
2023/01/08 06:53:33;;;;;;;;;;;;;;;;;;5016523;28;8656;-72
2023/01/08 06:56:14;;;;;;;;;;;;;;;;;;5036508;28;7443;-73
2023/01/08 06:59:12;;;;;;;;;;;;;;;;;;5037563;28;7207;-67
2023/01/08 07:01:38;;;;;;;;;;;;;;;;;;5037476;28;7071;-70
2023/01/08 07:04:32;;;;;;;;;;;;;;;;;;5037522;28;7010;-69
2023/01/08 07:06:57;;;;;;;;;;;;;;;;;;5037540;28;6979;-71
2023/01/08 07:18:22;;;;;;;;;;;;;;;;;;5037143;28;7104;-70
2023/01/08 07:20:48;;;;;;;;;;;;;;;;;;5037430;28;7338;-70
2023/01/08 07:23:14;;;;;;;;;;;;;;;;;;5036758;28;6919;-70
2023/01/08 07:25:52;;;;;;;;;;;;;;;;;;5037378;28;7533;-71
2023/01/08 07:28:18;;;;;;;;;;;;;;;;;;5036882;28;7489;-70
2023/01/08 07:30:43;;;;;;;;;;;;;;;;;;5037075;28;7154;-71
2023/01/08 07:33:09;;;;;;;;;;;;;;;;;;5024988;28;7364;-70
2023/01/08 07:35:39;;;;;;;;;;;;;;;;;;5035945;28;6926;-73
2023/01/08 07:38:05;;;;;;;;;;;;;;;;;;5028801;28;7087;-74
2023/01/08 07:40:37;;;;;;;;;;;;;;;;;;5031158;28;7364;-73
2023/01/08 07:43:06;;;;;;;;;;;;;;;;;;5026781;28;7332;-74
2023/01/08 07:45:32;;;;;;;;;;;;;;;;;;5035239;28;7220;-74
2023/01/08 07:47:58;;;;;;;;;;;;;;;;;;5035683;28;7118;-73
2023/01/08 07:50:24;;;;;;;;;;;;;;;;;;5056290;28;7312;-74
2023/01/08 08:05:01;;;;;;;;;;;;;;;;;;5036174;28;7037;-85
2023/01/08 08:10:40;;;;;;;;;;;;;;;;;;5036070;28;6916;-70
2023/01/08 08:13:06;;;;;;;;;;;;;;;;;;5036329;28;7339;-70
2023/01/08 08:18:34;;;;;;;;;;;;;;;;;;5035823;28;6918;-71
2023/01/08 08:21:14;;;;;;;;;;;;;;;;;;5036268;28;7113;-71
2023/01/08 08:23:39;;;;;;;;;;;;;;;;;;5035633;28;7040;-70
2023/01/08 08:26:06;;;;;;;;;;;;;;;;;;5036191;28;7135;-71
2023/01/08 08:29:06;;;;;;;;;;;;;;;;;;5036874;28;7097;-71
2023/01/08 08:31:32;;;;;;;;;;;;;;;;;;5035609;28;6934;-71
2023/01/08 08:34:31;;;;;;;;;;;;;;;;;;5034513;28;7359;-71
2023/01/08 08:36:57;;;;;;;;;;;;;;;;;;5035498;28;6950;-70
2023/01/08 08:45:28;;;;;;;;;;;;;;;;;;5034859;28;6679;-70
2023/01/08 08:51:12;;;;;;;;;;;;;;;;;;5055358;28;6983;-70
2023/01/08 08:53:37;;;;;;;;;;;;;;;;;;5054884;28;7047;-68
2023/01/08 08:56:03;;;;;;;;;;;;;;;;;;5054986;28;7192;-69
2023/01/08 08:58:28;;;;;;;;;;;;;;;;;;5055017;28;7021;-68
2023/01/08 09:01:21;;;;;;;;;;;;;;;;;;5055156;28;8213;-69
2023/01/08 09:03:47;;;;;;;;;;;;;;;;;;5035091;28;6993;-69
2023/01/08 09:06:13;;;;;;;;;;;;;;;;;;5035136;28;7118;-69
2023/01/08 09:08:39;;;;;;;;;;;;;;;;;;5035363;28;7041;-69
2023/01/08 09:11:04;;;;;;;;;;;;;;;;;;5035033;28;7318;-70
2023/01/08 09:14:02;;;;;;;;;;;;;;;;;;5033145;28;7398;-69
2023/01/08 09:16:28;;;;;;;;;;;;;;;;;;5033846;28;8435;-70
2023/01/08 09:18:53;;;;;;;;;;;;;;;;;;5035411;28;6978;-70
2023/01/08 09:24:22;;;;;;;;;;;;;;;;;;5034758;28;6757;-70
2023/01/08 09:27:04;;;;;;;;;;;;;;;;;;5034936;28;7172;-69
2023/01/08 09:29:30;;;;;;;;;;;;;;;;;;5034853;28;7392;-70
2023/01/08 09:31:59;;;;;;;;;;;;;;;;;;5034793;28;7080;-69
2023/01/08 09:37:29;;;;;;;;;;;;;;;;;;5037832;28;7123;-70
2023/01/08 09:39:55;;;;;;;;;;;;;;;;;;5053411;28;7209;-70
2023/01/08 09:42:24;;;;;;;;;;;;;;;;;;5054538;28;7182;-69
2023/01/08 09:50:49;;;;;;;;;;;;;;;;;;5034807;28;7023;-70
2023/01/08 09:53:17;;;;;;;;;;;;;;;;;;5034847;28;7341;-70
2023/01/08 09:55:42;;;;;;;;;;;;;;;;;;5035453;28;7165;-69
2023/01/08 10:01:16;;;;;;;;;;;;;;;;;;5038409;28;6683;-69
2023/01/08 10:03:43;;;;;;;;;;;;;;;;;;5038694;28;7132;-70
2023/01/08 10:06:10;;;;;;;;;;;;;;;;;;5038669;28;6942;-67
2023/01/08 10:08:35;;;;;;;;;;;;;;;;;;5038644;28;7365;-68
2023/01/08 10:11:08;;;;;;;;;;;;;;;;;;5038535;28;7466;-67
2023/01/08 10:13:36;;;;;;;;;;;;;;;;;;5038556;28;7162;-67
2023/01/08 10:16:04;;;;;;;;;;;;;;;;;;5038450;28;7281;-67
2023/01/08 10:18:32;;;;;;;;;;;;;;;;;;5038548;28;7230;-67
2023/01/08 10:21:21;;;;;;;;;;;;;;;;;;5038415;28;6958;-67
2023/01/08 10:23:51;;;;;;;;;;;;;;;;;;5038414;28;6982;-68
2023/01/08 10:26:36;;;;;;;;;;;;;;;;;;5038083;28;6984;-68
2023/01/08 10:29:11;;;;;;;;;;;;;;;;;;5038287;28;7219;-67
2023/01/08 10:31:58;;;;;;;;;;;;;;;;;;5038143;28;7405;-67
2023/01/08 10:41:06;;;;;;;;;;;;;;;;;;5037900;28;6674;-67
2023/01/08 10:44:09;;;;;;;;;;;;;;;;;;5037764;28;7070;-69
2023/01/08 10:46:43;;;;;;;;;;;;;;;;;;5037900;28;7144;-69
2023/01/08 10:49:35;;;;;;;;;;;;;;;;;;5048514;28;6960;-70
2023/01/08 10:52:01;;;;;;;;;;;;;;;;;;5057711;28;7129;-69
2023/01/08 10:54:40;;;;;;;;;;;;;;;;;;5057519;28;7002;-69
2023/01/08 10:57:22;;;;;;;;;;;;;;;;;;5057432;28;6910;-70
2023/01/08 11:02:50;;;;;;;;;;;;;;;;;;5057098;28;7029;-70
2023/01/08 11:08:21;;;;;;;;;;;;;;;;;;5057011;28;6951;-70
2023/01/08 11:11:14;;;;;;;;;;;;;;;;;;5057430;28;7116;-70
2023/01/08 11:13:55;;;;;;;;;;;;;;;;;;5039625;28;8453;-69
2023/01/08 11:16:22;;;;;;;;;;;;;;;;;;5057748;28;6967;-69
2023/01/08 11:24:54;;;;;;;;;;;;;;;;;;5056885;28;6928;-69
2023/01/08 11:27:41;;;;;;;;;;;;;;;;;;5056714;28;8243;-70
2023/01/08 11:30:19;;;;;;;;;;;;;;;;;;5057087;28;7051;-70
2023/01/08 11:33:02;;;;;;;;;;;;;;;;;;5056965;28;6966;-67
2023/01/08 11:35:35;;;;;;;;;;;;;;;;;;5038952;28;8514;-66
2023/01/08 11:38:01;;;;;;;;;;;;;;;;;;5057081;28;7037;-67
2023/01/08 11:40:30;;;;;;;;;;;;;;;;;;5056919;28;7345;-68
2023/01/08 11:49:09;;;;;;;;;;;;;;;;;;5051304;28;7071;-68
2023/01/08 11:58:12;;;;;;;;;;;;;;;;;;5037029;28;6797;-68
2023/01/08 12:00:57;;;;;;;;;;;;;;;;;;5036667;28;7340;-68
2023/01/08 12:03:28;;;;;;;;;;;;;;;;;;5036563;28;7198;-68
2023/01/08 12:12:06;;;;;;;;;;;;;;;;;;5036077;28;6943;-68
2023/01/08 12:14:34;;;;;;;;;;;;;;;;;;5036307;28;7428;-68
2023/01/08 12:17:24;;;;;;;;;;;;;;;;;;5036492;28;7578;-68
2023/01/08 12:23:13;;;;;;;;;;;;;;;;;;5036099;28;6902;-68
2023/01/08 12:25:57;;;;;;;;;;;;;;;;;;5026280;28;6968;-68
2023/01/08 12:28:41;;;;;;;;;;;;;;;;;;5036212;28;7184;-68
2023/01/08 12:31:12;;;;;;;;;;;;;;;;;;5036822;28;7239;-68
2023/01/08 12:46:04;;;;;;;;;;;;;;;;;;5035559;28;6931;-68
2023/01/08 12:48:35;;;;;;;;;;;;;;;;;;5037400;28;7410;-68
2023/01/08 12:51:07;;;;;;;;;;;;;;;;;;5035698;28;6967;-68
2023/01/08 12:53:44;;;;;;;;;;;;;;;;;;5035527;28;7235;-68
2023/01/08 12:59:23;;;;;;;;;;;;;;;;;;5063313;22;7502;-67
2023/01/08 13:02:07;;;;;;;;;;;;;;;;;;5035453;28;7027;-67
2023/01/08 13:04:47;;;;;;;;;;;;;;;;;;5035566;28;7693;-67
2023/01/08 13:07:19;;;;;;;;;;;;;;;;;;5035367;28;7373;-67
2023/01/08 13:12:51;;;;;;;;;;;;;;;;;;5034895;28;6683;-67
2023/01/08 13:15:35;;;;;;;;;;;;;;;;;;5035249;28;7032;-68
2023/01/08 13:18:07;;;;;;;;;;;;;;;;;;5035224;28;7166;-67
2023/01/08 13:20:33;;;;;;;;;;;;;;;;;;5036053;28;7039;-67
2023/01/08 13:23:30;;;;;;;;;;;;;;;;;;5034891;28;6980;-68
2023/01/08 13:25:57;;;;;;;;;;;;;;;;;;5035100;28;7268;-67
2023/01/08 13:28:27;;;;;;;;;;;;;;;;;;5026515;28;7029;-67
2023/01/08 13:30:54;;;;;;;;;;;;;;;;;;5015254;28;7458;-67
2023/01/08 13:33:42;;;;;;;;;;;;;;;;;;5015034;28;7124;-67
2023/01/08 13:36:13;;;;;;;;;;;;;;;;;;5015217;28;7452;-67
2023/01/08 13:47:55;;;;;;;;;;;;;;;;;;5014770;28;6676;-67
2023/01/08 13:50:25;;;;;;;;;;;;;;;;;;5015205;28;7207;-67
2023/01/08 13:53:00;;;;;;;;;;;;;;;;;;5014923;28;7170;-66
2023/01/08 13:55:35;;;;;;;;;;;;;;;;;;5014986;28;7236;-67
2023/01/08 14:01:13;;;;;;;;;;;;;;;;;;4995182;28;6842;-67
2023/01/08 14:03:45;;;;;;;;;;;;;;;;;;4995067;28;7169;-67
2023/01/08 14:06:18;;;;;;;;;;;;;;;;;;4995309;28;7130;-67
2023/01/08 14:08:50;;;;;;;;;;;;;;;;;;4995238;28;7578;-67
2023/01/08 14:11:29;;;;;;;;;;;;;;;;;;4995520;28;7166;-67
2023/01/08 14:13:55;;;;;;;;;;;;;;;;;;4994730;28;8048;-67
2023/01/08 14:16:22;;;;;;;;;;;;;;;;;;4995160;28;7482;-67
2023/01/08 14:25:00;;;;;;;;;;;;;;;;;;4994890;28;7004;-67
2023/01/08 14:27:27;;;;;;;;;;;;;;;;;;4995535;28;7137;-66
2023/01/08 14:32:58;;;;;;;;;;;;;;;;;;4995030;28;7023;-66
2023/01/08 14:35:31;;;;;;;;;;;;;;;;;;4995786;28;7138;-67
2023/01/08 14:37:58;;;;;;;;;;;;;;;;;;4994984;28;7189;-67
2023/01/08 14:43:27;;;;;;;;;;;;;;;;;;4995281;28;6680;-67
2023/01/08 14:45:53;;;;;;;;;;;;;;;;;;4981102;28;8471;-67
2023/01/08 14:51:44;;;;;;;;;;;;;;;;;;5017778;28;6715;-67
2023/01/08 14:54:17;;;;;;;;;;;;;;;;;;5018106;28;7234;-67
2023/01/08 15:00:14;;;;;;;;;;;;;;;;;;5017088;28;6683;-67
2023/01/08 15:02:59;;;;;;;;;;;;;;;;;;4973429;28;8531;-67
2023/01/08 15:05:27;;;;;;;;;;;;;;;;;;4957527;28;6986;-67
2023/01/08 15:08:17;;;;;;;;;;;;;;;;;;4957278;28;7406;-67
2023/01/08 15:10:42;;;;;;;;;;;;;;;;;;4957501;28;7272;-67
2023/01/08 15:13:28;;;;;;;;;;;;;;;;;;4957009;28;7184;-67
2023/01/08 15:16:00;;;;;;;;;;;;;;;;;;4957173;28;7386;-67
2023/01/08 15:18:42;;;;;;;;;;;;;;;;;;4958443;28;7125;-67
2023/01/08 15:21:09;;;;;;;;;;;;;;;;;;4957468;28;7396;-66
2023/01/08 15:26:40;;;;;;;;;;;;;;;;;;4957245;28;6846;-67
2023/01/08 15:29:06;;;;;;;;;;;;;;;;;;4956956;28;7166;-67
2023/01/08 15:31:44;;;;;;;;;;;;;;;;;;4957633;28;7044;-67
2023/01/08 15:34:09;;;;;;;;;;;;;;;;;;4957067;28;6931;-67
2023/01/08 15:36:36;;;;;;;;;;;;;;;;;;4956883;28;6984;-67
2023/01/08 15:39:01;;;;;;;;;;;;;;;;;;4977541;28;7123;-67
2023/01/08 15:44:52;;;;;;;;;;;;;;;;;;5034176;28;6808;-67
2023/01/08 15:47:18;;;;;;;;;;;;;;;;;;5036995;28;8229;-67
2023/01/08 15:52:46;;;;;;;;;;;;;;;;;;5036581;28;6683;-67
2023/01/08 15:58:15;;;;;;;;;;;;;;;;;;5035278;28;7024;-67
2023/01/08 16:00:41;;;;;;;;;;;;;;;;;;4997114;28;7123;-67
2023/01/08 16:03:07;;;;;;;;;;;;;;;;;;4996893;28;7318;-67
2023/01/08 16:06:02;;;;;;;;;;;;;;;;;;4997124;28;7038;-67
2023/01/08 16:08:28;;;;;;;;;;;;;;;;;;4997116;28;7193;-67
2023/01/08 16:10:53;;;;;;;;;;;;;;;;;;4997035;28;7205;-67
2023/01/08 16:13:19;;;;;;;;;;;;;;;;;;5016245;28;7355;-67
2023/01/08 16:16:06;;;;;;;;;;;;;;;;;;5016452;28;7288;-67
2023/01/08 16:18:51;;;;;;;;;;;;;;;;;;5016547;28;7186;-66
2023/01/08 16:21:18;;;;;;;;;;;;;;;;;;4999281;28;8803;-66
2023/01/08 16:24:08;;;;;;;;;;;;;;;;;;5016380;28;6921;-67
2023/01/08 16:26:33;;;;;;;;;;;;;;;;;;5016305;28;7150;-67
2023/01/08 16:32:01;;;;;;;;;;;;;;;;;;5015944;28;7070;-67
2023/01/08 16:34:27;;;;;;;;;;;;;;;;;;5016642;28;7385;-67
2023/01/08 16:43:00;;;;;;;;;;;;;;;;;;5015698;28;6804;-67
2023/01/08 16:45:26;;;;;;;;;;;;;;;;;;5016176;28;7169;-67
2023/01/08 16:51:03;;;;;;;;;;;;;;;;;;5015725;28;7058;-67
2023/01/08 16:53:28;;;;;;;;;;;;;;;;;;5015796;28;7412;-67
2023/01/08 16:55:53;;;;;;;;;;;;;;;;;;5015799;28;7142;-67
2023/01/08 16:58:19;;;;;;;;;;;;;;;;;;5016959;28;6920;-67
2023/01/08 17:00:46;;;;;;;;;;;;;;;;;;5035416;28;7159;-67
2023/01/08 17:03:14;;;;;;;;;;;;;;;;;;5035451;28;7147;-67
2023/01/08 17:05:40;;;;;;;;;;;;;;;;;;5035403;28;7051;-67
2023/01/08 17:14:00;;;;;;;;;;;;;;;;;;5019703;28;7144;-67
2023/01/08 17:19:45;;;;;;;;;;;;;;;;;;5015314;28;6701;-67
2023/01/08 17:22:10;;;;;;;;;;;;;;;;;;5029902;28;7169;-67
2023/01/08 17:25:01;;;;;;;;;;;;;;;;;;5017314;28;8447;-67
2023/01/08 17:27:27;;;;;;;;;;;;;;;;;;5035137;28;7167;-67
2023/01/08 17:29:52;;;;;;;;;;;;;;;;;;5035079;28;7403;-67
2023/01/08 17:32:31;;;;;;;;;;;;;;;;;;5034962;28;7124;-67
2023/01/08 17:34:56;;;;;;;;;;;;;;;;;;5034752;28;6931;-67
2023/01/08 17:37:39;;;;;;;;;;;;;;;;;;5034902;28;7081;-67
2023/01/08 17:40:05;;;;;;;;;;;;;;;;;;5034705;28;7372;-67
2023/01/08 17:42:30;;;;;;;;;;;;;;;;;;5034367;28;7155;-67
2023/01/08 17:47:59;;;;;;;;;;;;;;;;;;5034604;28;6907;-67
2023/01/08 17:50:26;;;;;;;;;;;;;;;;;;5035902;28;7033;-67
2023/01/08 17:52:51;;;;;;;;;;;;;;;;;;5034691;28;7075;-67
2023/01/08 17:55:17;;;;;;;;;;;;;;;;;;5034656;28;7140;-67
2023/01/08 17:57:56;;;;;;;;;;;;;;;;;;5034416;28;7133;-67
2023/01/08 18:00:22;;;;;;;;;;;;;;;;;;5034703;28;6941;-67
2023/01/08 18:02:47;;;;;;;;;;;;;;;;;;5034812;28;7385;-67
2023/01/08 18:05:17;;;;;;;;;;;;;;;;;;5034754;28;7238;-67
2023/01/08 18:07:43;;;;;;;;;;;;;;;;;;5034522;28;6953;-67
2023/01/08 18:10:09;;;;;;;;;;;;;;;;;;5034512;28;7065;-67
2023/01/08 18:12:35;;;;;;;;;;;;;;;;;;5033242;28;8510;-67
2023/01/08 18:15:00;;;;;;;;;;;;;;;;;;5034522;28;7003;-67
2023/01/08 18:21:01;;;;;;;;;;;;;;;;;;5038381;28;6922;-67
2023/01/08 18:23:26;;;;;;;;;;;;;;;;;;5038231;28;7337;-67
2023/01/08 18:25:52;;;;;;;;;;;;;;;;;;5038378;28;7235;-67
2023/01/08 18:28:17;;;;;;;;;;;;;;;;;;5038262;28;7006;-67
2023/01/08 18:31:07;;;;;;;;;;;;;;;;;;5038342;28;7138;-67
2023/01/08 18:33:53;;;;;;;;;;;;;;;;;;5039013;28;7591;-67
2023/01/08 18:36:19;;;;;;;;;;;;;;;;;;5038215;28;7135;-67
2023/01/08 18:38:45;;;;;;;;;;;;;;;;;;5038100;28;7415;-67
2023/01/08 18:42:24;;;;;;;;;;;;;;;;;;5038268;28;7272;-67
2023/01/08 18:47:01;;;;;;;;;;;;;;;;;;5037652;28;6943;-67
2023/01/08 18:49:47;;;;;;;;;;;;;;;;;;5017949;28;7103;-67
2023/01/08 18:52:12;;;;;;;;;;;;;;;;;;5017798;28;7267;-67
2023/01/08 18:54:39;;;;;;;;;;;;;;;;;;5018218;28;7135;-68
2023/01/08 18:57:38;;;;;;;;;;;;;;;;;;5018091;28;6989;-67
2023/01/08 19:03:07;;;;;;;;;;;;;;;;;;5017690;28;6703;-67
2023/01/08 19:08:38;;;;;;;;;;;;;;;;;;5017705;28;6679;-67
2023/01/08 19:11:14;;;;;;;;;;;;;;;;;;5018065;28;7578;-67
2023/01/08 19:13:40;;;;;;;;;;;;;;;;;;5017726;28;7405;-67
2023/01/08 19:16:27;;;;;;;;;;;;;;;;;;5018454;28;7042;-67
2023/01/08 19:18:52;;;;;;;;;;;;;;;;;;5018272;28;7147;-67
2023/01/08 19:21:37;;;;;;;;;;;;;;;;;;5017478;28;7106;-67
2023/01/08 19:24:02;;;;;;;;;;;;;;;;;;5029737;28;7121;-67
2023/01/08 19:26:55;;;;;;;;;;;;;;;;;;5037240;28;7131;-67
2023/01/08 19:29:21;;;;;;;;;;;;;;;;;;5030447;28;7813;-67
2023/01/08 19:31:46;;;;;;;;;;;;;;;;;;5016973;28;7342;-67
2023/01/08 19:34:12;;;;;;;;;;;;;;;;;;5017273;28;7230;-67
2023/01/08 19:36:38;;;;;;;;;;;;;;;;;;5017211;28;7128;-67
2023/01/08 19:44:52;;;;;;;;;;;;;;;;;;5016992;28;6977;-67
2023/01/08 19:47:18;;;;;;;;;;;;;;;;;;5016782;28;7190;-67
2023/01/08 19:50:04;;;;;;;;;;;;;;;;;;5016987;28;7126;-67
2023/01/08 19:52:30;;;;;;;;;;;;;;;;;;5016940;28;7039;-67
2023/01/08 19:54:57;;;;;;;;;;;;;;;;;;5016950;28;7218;-67
2023/01/08 19:57:31;;;;;;;;;;;;;;;;;;5016954;28;7184;-67
2023/01/08 20:02:59;;;;;;;;;;;;;;;;;;5016487;28;6690;-67
2023/01/08 20:08:28;;;;;;;;;;;;;;;;;;5016418;28;6934;-67
2023/01/08 20:11:10;;;;;;;;;;;;;;;;;;5016564;28;7117;-67
2023/01/08 20:16:39;;;;;;;;;;;;;;;;;;5016420;28;6834;-67
2023/01/08 20:19:05;;;;;;;;;;;;;;;;;;5016235;28;8048;-67
2023/01/08 20:21:36;;;;;;;;;;;;;;;;;;5016421;28;6937;-67
2023/01/08 20:24:05;;;;;;;;;;;;;;;;;;5016720;28;8001;-67
2023/01/08 20:26:34;;;;;;;;;;;;;;;;;;5016372;28;7401;-67
2023/01/08 20:29:00;;;;;;;;;;;;;;;;;;5016269;28;7152;-67
2023/01/08 20:31:31;;;;;;;;;;;;;;;;;;5016931;28;6917;-67
2023/01/08 20:33:58;;;;;;;;;;;;;;;;;;5016072;28;6937;-67
2023/01/08 20:36:27;;;;;;;;;;;;;;;;;;5016139;28;7072;-67
2023/01/08 20:38:54;;;;;;;;;;;;;;;;;;5016127;28;6960;-66
2023/01/08 20:41:20;;;;;;;;;;;;;;;;;;5015075;28;7039;-67
2023/01/08 20:46:48;;;;;;;;;;;;;;;;;;5015807;28;6939;-67
2023/01/08 20:49:29;;;;;;;;;;;;;;;;;;5016229;28;7104;-67
2023/01/08 20:51:56;;;;;;;;;;;;;;;;;;5016037;28;7119;-67
2023/01/08 20:54:43;;;;;;;;;;;;;;;;;;5015896;28;7119;-67
2023/01/08 20:57:23;;;;;;;;;;;;;;;;;;5031715;28;7203;-67
2023/01/08 21:00:01;;;;;;;;;;;;;;;;;;5024297;28;7140;-67
2023/01/08 21:02:28;;;;;;;;;;;;;;;;;;4997826;28;8454;-67
2023/01/08 21:04:55;;;;;;;;;;;;;;;;;;5020863;28;7064;-67
2023/01/08 21:07:20;;;;;;;;;;;;;;;;;;5025911;28;7192;-69
2023/01/08 21:09:55;;;;;;;;;;;;;;;;;;5035154;28;7198;-67
2023/01/08 21:12:21;;;;;;;;;;;;;;;;;;5035408;28;7141;-67
2023/01/08 21:14:46;;;;;;;;;;;;;;;;;;5035108;28;7421;-67
2023/01/08 21:17:12;;;;;;;;;;;;;;;;;;5017328;28;6911;-67
2023/01/08 21:19:37;;;;;;;;;;;;;;;;;;5015296;28;7020;-67
2023/01/08 21:22:03;;;;;;;;;;;;;;;;;;5015195;28;7114;-67
2023/01/08 21:24:31;;;;;;;;;;;;;;;;;;5015815;28;7099;-67
2023/01/08 21:26:57;;;;;;;;;;;;;;;;;;5015271;28;7174;-67
2023/01/08 21:29:23;;;;;;;;;;;;;;;;;;5016011;28;7400;-67
2023/01/08 21:31:49;;;;;;;;;;;;;;;;;;5015065;28;7334;-67
2023/01/08 21:34:14;;;;;;;;;;;;;;;;;;5015168;28;6939;-68
2023/01/08 21:45:29;;;;;;;;;;;;;;;;;;5015217;28;6811;-67
2023/01/08 21:47:56;;;;;;;;;;;;;;;;;;4997391;28;8438;-67
2023/01/08 21:50:33;;;;;;;;;;;;;;;;;;5015154;28;7020;-67
2023/01/08 21:56:17;;;;;;;;;;;;;;;;;;5015370;28;6933;-67
2023/01/08 21:58:58;;;;;;;;;;;;;;;;;;5010402;28;7406;-67
2023/01/08 22:01:23;;;;;;;;;;;;;;;;;;4995437;28;6949;-67
2023/01/08 22:10:23;;;;;;;;;;;;;;;;;;5014407;28;6704;-67
2023/01/08 22:12:49;;;;;;;;;;;;;;;;;;5008740;28;7224;-67
2023/01/08 22:15:14;;;;;;;;;;;;;;;;;;5004476;28;7380;-67
2023/01/08 22:17:40;;;;;;;;;;;;;;;;;;5014110;28;7131;-67
2023/01/08 22:20:33;;;;;;;;;;;;;;;;;;5002851;28;7074;-69
2023/01/08 22:22:59;;;;;;;;;;;;;;;;;;5012817;28;7398;-71
2023/01/08 22:25:24;;;;;;;;;;;;;;;;;;4996387;28;8438;-71
2023/01/08 22:27:52;;;;;;;;;;;;;;;;;;5014346;28;6935;-70
2023/01/08 22:36:23;;;;;;;;;;;;;;;;;;5000960;28;6950;-71